createdAt,value
2016-05-05T00:00:18.976Z,0
2016-05-05T00:01:19.120Z,0
2016-05-05T00:02:18.951Z,0
2016-05-05T00:03:19.078Z,0
2016-05-05T00:04:18.925Z,0
2016-05-05T00:05:19.067Z,0
2016-05-05T00:06:19.039Z,0
2016-05-05T00:07:19.027Z,0
2016-05-05T00:08:18.997Z,0
2016-05-05T00:09:19.251Z,0
2016-05-05T00:10:18.831Z,0
2016-05-05T00:11:18.803Z,0
2016-05-05T00:12:18.930Z,0
2016-05-05T00:13:18.918Z,0
2016-05-05T00:14:18.921Z,0
2016-05-05T00:15:18.735Z,0
2016-05-05T00:16:18.863Z,0
2016-05-05T00:17:18.865Z,0
2016-05-05T00:18:18.853Z,0
2016-05-05T00:19:18.668Z,0
2016-05-05T00:20:18.655Z,0
2016-05-05T00:21:18.643Z,0
2016-05-05T00:22:18.785Z,0
2016-05-05T00:23:18.757Z,0
2016-05-05T00:24:18.760Z,0
2016-05-05T00:25:18.731Z,0
2016-05-05T00:26:18.703Z,0
2016-05-05T00:27:18.549Z,0
2016-05-05T00:28:18.692Z,0
2016-05-05T00:29:18.664Z,0
2016-05-05T00:30:18.650Z,0
2016-05-05T00:31:18.826Z,0
2016-05-05T00:32:18.625Z,0
2016-05-05T00:33:18.455Z,0
2016-05-05T00:34:18.428Z,0
2016-05-05T00:35:18.570Z,0
2016-05-05T00:36:18.558Z,0
2016-05-05T00:37:18.529Z,0
2016-05-05T00:38:18.375Z,0
2016-05-05T00:39:18.706Z,0
2016-05-05T00:40:18.490Z,0
2016-05-05T00:41:18.164Z,0
2016-05-05T00:42:18.464Z,0
2016-05-05T00:43:18.452Z,0
2016-05-05T00:44:18.422Z,0
2016-05-05T00:45:18.254Z,0
2016-05-05T00:46:18.396Z,0
2016-05-05T00:47:18.228Z,0
2016-05-05T00:48:18.355Z,0
2016-05-05T00:49:18.343Z,0
2016-05-05T00:50:18.329Z,0
2016-05-05T00:51:18.317Z,0
2016-05-05T00:52:18.132Z,0
2016-05-05T00:53:18.135Z,0
2016-05-05T00:54:18.106Z,0
2016-05-05T00:55:18.249Z,0
2016-05-05T00:56:18.237Z,0
2016-05-05T00:57:18.224Z,0
2016-05-05T00:58:18.196Z,0
2016-05-05T00:59:18.182Z,0
2016-05-05T01:00:18.169Z,0
2016-05-05T01:01:18.140Z,0
2016-05-05T01:02:18.143Z,0
2016-05-05T01:03:18.114Z,0
2016-05-05T01:04:18.086Z,0
2016-05-05T01:05:18.089Z,0
2016-05-05T01:06:18.061Z,0
2016-05-05T01:07:17.891Z,0
2016-05-05T01:08:18.019Z,0
2016-05-05T01:09:18.583Z,0
2016-05-05T01:10:17.992Z,0
2016-05-05T01:11:17.824Z,0
2016-05-05T01:12:17.966Z,0
2016-05-05T01:13:17.797Z,0
2016-05-05T01:14:17.941Z,0
2016-05-05T01:15:17.913Z,0
2016-05-05T01:16:18.103Z,0
2016-05-05T01:17:17.730Z,0
2016-05-05T01:18:17.858Z,0
2016-05-05T01:19:17.845Z,0
2016-05-05T01:20:17.832Z,0
2016-05-05T01:21:17.819Z,0
2016-05-05T01:22:17.807Z,0
2016-05-05T01:23:17.777Z,0
2016-05-05T01:24:17.624Z,0
2016-05-05T01:25:17.768Z,0
2016-05-05T01:26:17.568Z,0
2016-05-05T01:27:17.710Z,0
2016-05-05T01:28:17.541Z,0
2016-05-05T01:29:17.528Z,0
2016-05-05T01:30:17.656Z,0
2016-05-05T01:31:17.659Z,0
2016-05-05T01:32:17.646Z,0
2016-05-05T01:33:17.601Z,0
2016-05-05T01:34:17.604Z,0
2016-05-05T01:35:17.576Z,0
2016-05-05T01:36:17.407Z,0
2016-05-05T01:37:17.394Z,0
2016-05-05T01:38:17.381Z,0
2016-05-05T01:39:17.367Z,0
2016-05-05T01:40:17.495Z,0
2016-05-05T01:41:17.467Z,0
2016-05-05T01:42:17.454Z,0
2016-05-05T01:43:17.441Z,0
2016-05-05T01:44:17.428Z,0
2016-05-05T01:45:17.400Z,0
2016-05-05T01:46:17.402Z,0
2016-05-05T01:47:17.373Z,0
2016-05-05T01:48:17.360Z,0
2016-05-05T01:49:17.332Z,0
2016-05-05T01:50:17.335Z,0
2016-05-05T01:51:17.135Z,0
2016-05-05T01:52:17.314Z,0
2016-05-05T01:53:17.328Z,0
2016-05-05T01:54:17.608Z,0
2016-05-05T01:55:17.091Z,0
2016-05-05T01:56:17.245Z,0
2016-05-05T01:57:17.261Z,0
2016-05-05T01:58:17.451Z,0
2016-05-05T01:59:17.250Z,0
2016-05-05T02:00:17.409Z,0
2016-05-05T02:01:17.412Z,0
2016-05-05T02:02:17.394Z,0
2016-05-05T02:03:17.403Z,0
2016-05-05T02:04:17.379Z,0
2016-05-05T02:05:17.373Z,0
2016-05-05T02:06:17.209Z,0
2016-05-05T02:07:17.059Z,0
2016-05-05T02:08:17.174Z,0
2016-05-05T02:09:17.507Z,0
2016-05-05T02:10:17.308Z,0
2016-05-05T02:11:17.296Z,0
2016-05-05T02:12:17.270Z,0
2016-05-05T02:13:17.242Z,0
2016-05-05T02:14:17.244Z,0
2016-05-05T02:15:17.062Z,0
2016-05-05T02:16:17.205Z,0
2016-05-05T02:17:17.037Z,0
2016-05-05T02:18:17.165Z,0
2016-05-05T02:19:17.152Z,0
2016-05-05T02:20:17.139Z,0
2016-05-05T02:21:16.955Z,0
2016-05-05T02:22:16.943Z,0
2016-05-05T02:23:17.088Z,0
2016-05-05T02:24:17.168Z,0
2016-05-05T02:25:17.046Z,0
2016-05-05T02:26:17.017Z,0
2016-05-05T02:27:16.848Z,0
2016-05-05T02:28:16.835Z,0
2016-05-05T02:29:16.995Z,0
2016-05-05T02:30:16.638Z,0
2016-05-05T02:31:17.140Z,0
2016-05-05T02:32:16.768Z,0
2016-05-05T02:33:16.911Z,0
2016-05-05T02:34:16.898Z,0
2016-05-05T02:35:16.714Z,0
2016-05-05T02:36:16.872Z,0
2016-05-05T02:37:16.672Z,0
2016-05-05T02:38:16.831Z,0
2016-05-05T02:39:16.803Z,0
2016-05-05T02:40:16.634Z,0
2016-05-05T02:41:16.761Z,0
2016-05-05T02:42:16.748Z,0
2016-05-05T02:43:16.578Z,0
2016-05-05T02:44:16.707Z,0
2016-05-05T02:45:16.694Z,0
2016-05-05T02:46:16.524Z,0
2016-05-05T02:47:16.652Z,0
2016-05-05T02:48:16.483Z,0
2016-05-05T02:49:16.626Z,0
2016-05-05T02:50:16.614Z,0
2016-05-05T02:51:16.616Z,0
2016-05-05T02:52:16.572Z,0
2016-05-05T02:53:16.559Z,0
2016-05-05T02:54:16.577Z,0
2016-05-05T02:55:16.377Z,0
2016-05-05T02:56:16.505Z,0
2016-05-05T02:57:16.179Z,0
2016-05-05T02:58:16.463Z,0
2016-05-05T02:59:16.451Z,0
2016-05-05T03:00:16.438Z,0
2016-05-05T03:01:16.409Z,0
2016-05-05T03:02:16.255Z,0
2016-05-05T03:03:16.226Z,0
2016-05-05T03:04:16.354Z,0
2016-05-05T03:05:16.342Z,0
2016-05-05T03:06:16.172Z,0
2016-05-05T03:07:16.300Z,0
2016-05-05T03:08:16.287Z,0
2016-05-05T03:09:16.587Z,0
2016-05-05T03:10:16.245Z,0
2016-05-05T03:11:16.232Z,0
2016-05-05T03:12:16.219Z,0
2016-05-05T03:13:16.034Z,0
2016-05-05T03:14:16.022Z,0
2016-05-05T03:15:16.368Z,0
2016-05-05T03:16:16.167Z,0
2016-05-05T03:17:16.124Z,0
2016-05-05T03:18:15.955Z,0
2016-05-05T03:19:16.098Z,0
2016-05-05T03:20:15.913Z,4
2016-05-05T03:21:16.055Z,4
2016-05-05T03:22:15.730Z,0
2016-05-05T03:23:16.015Z,0
2016-05-05T03:24:16.018Z,4
2016-05-05T03:25:15.677Z,4
2016-05-05T03:26:15.960Z,4
2016-05-05T03:27:15.947Z,4
2016-05-05T03:28:15.778Z,4
2016-05-05T03:29:15.907Z,4
2016-05-05T03:30:15.737Z,8
2016-05-05T03:31:15.879Z,8
2016-05-05T03:32:15.695Z,12
2016-05-05T03:33:15.838Z,12
2016-05-05T03:34:15.826Z,12
2016-05-05T03:35:15.813Z,12
2016-05-05T03:36:15.628Z,20
2016-05-05T03:37:15.756Z,24
2016-05-05T03:38:15.743Z,28
2016-05-05T03:39:17.276Z,28
2016-05-05T03:40:15.717Z,32
2016-05-05T03:41:15.531Z,36
2016-05-05T03:42:15.519Z,44
2016-05-05T03:43:15.678Z,48
2016-05-05T03:44:15.650Z,52
2016-05-05T03:45:15.620Z,60
2016-05-05T03:46:15.608Z,68
2016-05-05T03:47:15.595Z,76
2016-05-05T03:48:15.567Z,84
2016-05-05T03:49:15.553Z,96
2016-05-05T03:50:15.540Z,104
2016-05-05T03:51:15.371Z,116
2016-05-05T03:52:15.343Z,128
2016-05-05T03:53:15.313Z,140
2016-05-05T03:54:15.269Z,156
2016-05-05T03:55:15.288Z,168
2016-05-05T03:56:15.416Z,184
2016-05-05T03:57:15.403Z,200
2016-05-05T03:58:15.405Z,216
2016-05-05T03:59:15.377Z,236
2016-05-05T04:00:15.348Z,252
2016-05-05T04:01:15.351Z,268
2016-05-05T04:02:15.166Z,288
2016-05-05T04:03:15.325Z,308
2016-05-05T04:04:15.281Z,328
2016-05-05T04:05:15.253Z,352
2016-05-05T04:06:15.084Z,368
2016-05-05T04:07:15.227Z,392
2016-05-05T04:08:15.198Z,412
2016-05-05T04:09:15.201Z,436
2016-05-05T04:10:15.000Z,456
2016-05-05T04:11:14.987Z,480
2016-05-05T04:12:15.131Z,500
2016-05-05T04:13:15.134Z,524
2016-05-05T04:14:15.152Z,548
2016-05-05T04:15:15.092Z,568
2016-05-05T04:16:15.079Z,592
2016-05-05T04:17:15.051Z,616
2016-05-05T04:18:14.850Z,640
2016-05-05T04:19:14.853Z,664
2016-05-05T04:20:14.824Z,688
2016-05-05T04:21:14.811Z,708
2016-05-05T04:22:14.799Z,732
2016-05-05T04:23:14.957Z,756
2016-05-05T04:24:15.522Z,776
2016-05-05T04:25:14.744Z,800
2016-05-05T04:26:14.872Z,820
2016-05-05T04:27:14.891Z,840
2016-05-05T04:28:14.674Z,864
2016-05-05T04:29:14.677Z,884
2016-05-05T04:30:14.804Z,904
2016-05-05T04:31:15.026Z,924
2016-05-05T04:32:14.779Z,948
2016-05-05T04:33:14.749Z,976
2016-05-05T04:34:14.721Z,1000
2016-05-05T04:35:14.723Z,1024
2016-05-05T04:36:14.696Z,1040
2016-05-05T04:37:14.526Z,1064
2016-05-05T04:38:14.482Z,1084
2016-05-05T04:39:15.485Z,1104
2016-05-05T04:40:14.628Z,1124
2016-05-05T04:41:14.443Z,1144
2016-05-05T04:42:14.634Z,1156
2016-05-05T04:43:14.448Z,1176
2016-05-05T04:44:14.389Z,1192
2016-05-05T04:45:14.376Z,1208
2016-05-05T04:46:14.520Z,1228
2016-05-05T04:47:14.491Z,1244
2016-05-05T04:48:14.477Z,1260
2016-05-05T04:49:14.309Z,1276
2016-05-05T04:50:14.311Z,1292
2016-05-05T04:51:14.267Z,1308
2016-05-05T04:52:14.394Z,1328
2016-05-05T04:53:14.383Z,1344
2016-05-05T04:54:14.447Z,1360
2016-05-05T04:55:14.355Z,1376
2016-05-05T04:56:14.531Z,1392
2016-05-05T04:57:14.158Z,1404
2016-05-05T04:58:14.316Z,1424
2016-05-05T04:59:14.289Z,1432
2016-05-05T05:00:14.104Z,1452
2016-05-05T05:01:14.247Z,1464
2016-05-05T05:02:14.219Z,1476
2016-05-05T05:03:14.205Z,1492
2016-05-05T05:04:14.192Z,1500
2016-05-05T05:05:14.023Z,1512
2016-05-05T05:06:14.183Z,1528
2016-05-05T05:07:14.138Z,1544
2016-05-05T05:08:13.969Z,1556
2016-05-05T05:09:13.956Z,1568
2016-05-05T05:10:14.084Z,1580
2016-05-05T05:11:14.070Z,1596
2016-05-05T05:12:14.074Z,1612
2016-05-05T05:13:14.029Z,1624
2016-05-05T05:14:14.001Z,1636
2016-05-05T05:15:13.988Z,1652
2016-05-05T05:16:13.975Z,1656
2016-05-05T05:17:13.664Z,1664
2016-05-05T05:18:13.620Z,1684
2016-05-05T05:19:13.608Z,1700
2016-05-05T05:20:13.923Z,1716
2016-05-05T05:21:13.895Z,1724
2016-05-05T05:22:13.866Z,1736
2016-05-05T05:23:13.853Z,1752
2016-05-05T05:24:14.028Z,1764
2016-05-05T05:25:13.655Z,1772
2016-05-05T05:26:13.658Z,1784
2016-05-05T05:27:13.785Z,1796
2016-05-05T05:28:13.601Z,1812
2016-05-05T05:29:13.604Z,1828
2016-05-05T05:30:13.575Z,1844
2016-05-05T05:31:13.702Z,1852
2016-05-05T05:32:13.565Z,1868
2016-05-05T05:33:13.521Z,1876
2016-05-05T05:34:13.663Z,1888
2016-05-05T05:35:13.651Z,1904
2016-05-05T05:36:13.623Z,1916
2016-05-05T05:37:13.296Z,1920
2016-05-05T05:38:13.612Z,1924
2016-05-05T05:39:13.427Z,1936
2016-05-05T05:40:13.415Z,1948
2016-05-05T05:41:13.542Z,1956
2016-05-05T05:42:13.514Z,1948
2016-05-05T05:43:13.516Z,1944
2016-05-05T05:44:13.331Z,1940
2016-05-05T05:45:13.318Z,1964
2016-05-05T05:46:13.462Z,1980
2016-05-05T05:47:13.370Z,1992
2016-05-05T05:48:13.420Z,1996
2016-05-05T05:49:13.408Z,2000
2016-05-05T05:50:13.378Z,2012
2016-05-05T05:51:13.381Z,2020
2016-05-05T05:52:13.353Z,2028
2016-05-05T05:53:13.339Z,2052
2016-05-05T05:54:13.624Z,2068
2016-05-05T05:55:13.314Z,2060
2016-05-05T05:56:13.285Z,2072
2016-05-05T05:57:13.147Z,2088
2016-05-05T05:58:13.260Z,2112
2016-05-05T05:59:13.231Z,2128
2016-05-05T06:00:13.218Z,2140
2016-05-05T06:01:13.205Z,2164
2016-05-05T06:02:13.192Z,2184
2016-05-05T06:03:13.007Z,2196
2016-05-05T06:04:13.151Z,2208
2016-05-05T06:05:13.138Z,2212
2016-05-05T06:06:13.125Z,2224
2016-05-05T06:07:13.096Z,2236
2016-05-05T06:08:12.942Z,2236
2016-05-05T06:09:13.414Z,2252
2016-05-05T06:10:13.058Z,2264
2016-05-05T06:11:13.045Z,2272
2016-05-05T06:12:12.875Z,2284
2016-05-05T06:13:13.018Z,2304
2016-05-05T06:14:12.990Z,2316
2016-05-05T06:15:12.992Z,2324
2016-05-05T06:16:12.808Z,2324
2016-05-05T06:17:12.951Z,2332
2016-05-05T06:18:12.766Z,2340
2016-05-05T06:19:12.909Z,2352
2016-05-05T06:20:12.897Z,2360
2016-05-05T06:21:12.884Z,2364
2016-05-05T06:22:12.871Z,2368
2016-05-05T06:23:13.118Z,2368
2016-05-05T06:24:13.168Z,2372
2016-05-05T06:25:12.810Z,2376
2016-05-05T06:26:12.658Z,2388
2016-05-05T06:27:12.629Z,2404
2016-05-05T06:28:12.771Z,2408
2016-05-05T06:29:12.743Z,2420
2016-05-05T06:30:12.730Z,2424
2016-05-05T06:31:12.718Z,2424
2016-05-05T06:32:12.721Z,2420
2016-05-05T06:33:12.692Z,2416
2016-05-05T06:34:12.660Z,2412
2016-05-05T06:35:12.507Z,2416
2016-05-05T06:36:12.634Z,2428
2016-05-05T06:37:12.481Z,2424
2016-05-05T06:38:12.609Z,2424
2016-05-05T06:39:13.379Z,2428
2016-05-05T06:40:12.567Z,2428
2016-05-05T06:41:12.554Z,2440
2016-05-05T06:42:12.650Z,2448
2016-05-05T06:43:12.607Z,2464
2016-05-05T06:44:12.515Z,2484
2016-05-05T06:45:12.503Z,2492
2016-05-05T06:46:12.489Z,2500
2016-05-05T06:47:12.320Z,2516
2016-05-05T06:48:12.511Z,2532
2016-05-05T06:49:12.450Z,2544
2016-05-05T06:50:12.110Z,2564
2016-05-05T06:51:12.253Z,2584
2016-05-05T06:52:12.396Z,2588
2016-05-05T06:53:12.383Z,2592
2016-05-05T06:54:12.386Z,2608
2016-05-05T06:55:12.202Z,2628
2016-05-05T06:56:12.188Z,2648
2016-05-05T06:57:12.316Z,2660
2016-05-05T06:58:12.303Z,2692
2016-05-05T06:59:11.993Z,2708
2016-05-05T07:00:12.293Z,2712
2016-05-05T07:01:11.967Z,2692
2016-05-05T07:02:12.252Z,2696
2016-05-05T07:03:12.270Z,2716
2016-05-05T07:04:12.210Z,2720
2016-05-05T07:05:12.041Z,2720
2016-05-05T07:06:12.200Z,2724
2016-05-05T07:07:12.187Z,2720
2016-05-05T07:08:12.174Z,2744
2016-05-05T07:09:13.192Z,2756
2016-05-05T07:10:12.148Z,2768
2016-05-05T07:11:12.104Z,2776
2016-05-05T07:12:11.965Z,2780
2016-05-05T07:13:12.093Z,2776
2016-05-05T07:14:11.956Z,2776
2016-05-05T07:15:12.053Z,2788
2016-05-05T07:16:12.039Z,2800
2016-05-05T07:17:12.025Z,2812
2016-05-05T07:18:12.014Z,2832
2016-05-05T07:19:12.078Z,2860
2016-05-05T07:20:11.831Z,2884
2016-05-05T07:21:11.974Z,2940
2016-05-05T07:22:11.977Z,2984
2016-05-05T07:23:11.949Z,3016
2016-05-05T07:24:11.622Z,3060
2016-05-05T07:25:11.922Z,3116
2016-05-05T07:26:11.738Z,3188
2016-05-05T07:27:11.944Z,3264
2016-05-05T07:28:11.868Z,3328
2016-05-05T07:29:11.855Z,3412
2016-05-05T07:30:11.686Z,3480
2016-05-05T07:31:11.689Z,3560
2016-05-05T07:32:11.816Z,3608
2016-05-05T07:33:11.804Z,3588
2016-05-05T07:34:11.791Z,3576
2016-05-05T07:35:11.793Z,3568
2016-05-05T07:36:11.765Z,3584
2016-05-05T07:37:11.768Z,3600
2016-05-05T07:38:11.739Z,3656
2016-05-05T07:39:11.570Z,3664
2016-05-05T07:40:11.712Z,3696
2016-05-05T07:41:11.701Z,3732
2016-05-05T07:42:11.515Z,3724
2016-05-05T07:43:11.673Z,3764
2016-05-05T07:44:11.662Z,3784
2016-05-05T07:45:11.648Z,3800
2016-05-05T07:46:11.636Z,3780
2016-05-05T07:47:11.622Z,3812
2016-05-05T07:48:11.594Z,3864
2016-05-05T07:49:11.597Z,3916
2016-05-05T07:50:11.427Z,3984
2016-05-05T07:51:11.415Z,4124
2016-05-05T07:52:11.402Z,4344
2016-05-05T07:53:11.389Z,4088
2016-05-05T07:54:11.422Z,4132
2016-05-05T07:55:12.050Z,4160
2016-05-05T07:56:11.349Z,4168
2016-05-05T07:57:11.352Z,4180
2016-05-05T07:58:11.480Z,4204
2016-05-05T07:59:11.467Z,4220
2016-05-05T08:00:11.455Z,4264
2016-05-05T08:01:11.285Z,4352
2016-05-05T08:02:11.116Z,4496
2016-05-05T08:03:11.415Z,4816
2016-05-05T08:04:11.402Z,4840
2016-05-05T08:05:11.390Z,4980
2016-05-05T08:06:11.393Z,5208
2016-05-05T08:07:11.364Z,5568
2016-05-05T08:08:11.210Z,5712
2016-05-05T08:09:11.400Z,23808
2016-05-05T08:10:11.341Z,50176
2016-05-05T08:11:11.328Z,51808
2016-05-05T08:12:11.315Z,48160
2016-05-05T08:13:11.317Z,48704
2016-05-05T08:14:11.148Z,48672
2016-05-05T08:15:11.292Z,50432
2016-05-05T08:16:11.279Z,52864
2016-05-05T08:17:11.297Z,54752
2016-05-05T08:18:11.267Z,56096
2016-05-05T08:19:11.381Z,55008
2016-05-05T08:20:11.258Z,56032
2016-05-05T08:21:11.136Z,56512
2016-05-05T08:22:11.233Z,57056
2016-05-05T08:23:11.251Z,57504
2016-05-05T08:24:10.941Z,56992
2016-05-05T08:25:11.225Z,55392
2016-05-05T08:26:11.211Z,52416
2016-05-05T08:27:11.214Z,50240
2016-05-05T08:28:11.233Z,49248
2016-05-05T08:29:11.064Z,51488
2016-05-05T08:30:11.222Z,55936
2016-05-05T08:31:11.210Z,59680
2016-05-05T08:32:11.431Z,60672
2016-05-05T08:33:11.215Z,59104
2016-05-05T08:34:11.046Z,56000
2016-05-05T08:35:10.893Z,51648
2016-05-05T08:36:11.066Z,49216
2016-05-05T08:37:11.054Z,50560
2016-05-05T08:38:11.229Z,54944
2016-05-05T08:39:11.059Z,60704
2016-05-05T08:40:11.218Z,64800
2016-05-05T08:41:11.204Z,65504
2016-05-05T08:42:11.207Z,63968
2016-05-05T08:43:10.945Z,60512
2016-05-05T08:44:11.198Z,57184
2016-05-05T08:45:11.200Z,53952
2016-05-05T08:46:11.032Z,53152
2016-05-05T08:47:11.425Z,47776
2016-05-05T08:48:11.052Z,41088
2016-05-05T08:49:11.195Z,36288
2016-05-05T08:50:11.042Z,29408
2016-05-05T08:51:11.186Z,25472
2016-05-05T08:52:11.203Z,44160
2016-05-05T08:53:11.034Z,48736
2016-05-05T08:54:11.178Z,34368
2016-05-05T08:55:11.196Z,47008
2016-05-05T08:56:11.183Z,41792
2016-05-05T08:57:11.217Z,70688
2016-05-05T08:58:11.080Z,59232
2016-05-05T08:59:11.175Z,54848
2016-05-05T09:00:11.037Z,44064
2016-05-05T09:01:11.197Z,48128
2016-05-05T09:02:11.184Z,35456
2016-05-05T09:03:11.185Z,23712
2016-05-05T09:04:11.205Z,33024
2016-05-05T09:05:11.191Z,25376
2016-05-05T09:06:11.179Z,16856
2016-05-05T09:07:11.196Z,51424
2016-05-05T09:08:11.168Z,52768
2016-05-05T09:09:11.468Z,53248
2016-05-05T09:10:11.174Z,45888
2016-05-05T09:11:11.176Z,45632
2016-05-05T09:12:11.007Z,31200
2016-05-05T09:13:11.166Z,28928
2016-05-05T09:14:11.169Z,30912
2016-05-05T09:15:11.171Z,26592
2016-05-05T09:16:11.159Z,29376
2016-05-05T09:17:11.021Z,19616
2016-05-05T09:18:11.009Z,20000
2016-05-05T09:19:11.166Z,31232
2016-05-05T09:20:11.170Z,65568
2016-05-05T09:21:11.172Z,47296
2016-05-05T09:22:11.144Z,39744
2016-05-05T09:23:11.147Z,41376
2016-05-05T09:24:11.414Z,51360
2016-05-05T09:25:11.136Z,62560
2016-05-05T09:26:10.982Z,58688
2016-05-05T09:27:11.142Z,42080
2016-05-05T09:28:10.988Z,17920
2016-05-05T09:29:11.147Z,16736
2016-05-05T09:30:11.245Z,19456
2016-05-05T09:31:11.143Z,27360
2016-05-05T09:32:11.147Z,42048
2016-05-05T09:33:11.400Z,50496
2016-05-05T09:34:11.122Z,27808
2016-05-05T09:35:11.124Z,31968
2016-05-05T09:36:11.127Z,24096
2016-05-05T09:37:10.958Z,27520
2016-05-05T09:38:11.116Z,37792
2016-05-05T09:39:11.665Z,44064
2016-05-05T09:40:11.107Z,32992
2016-05-05T09:41:10.952Z,21984
2016-05-05T09:42:11.127Z,19680
2016-05-05T09:43:10.952Z,21728
2016-05-05T09:44:11.112Z,35488
2016-05-05T09:45:11.082Z,28544
2016-05-05T09:46:10.928Z,15308
2016-05-05T09:47:12.213Z,13824
2016-05-05T09:48:11.450Z,32512
2016-05-05T09:49:11.078Z,50656
2016-05-05T09:50:11.081Z,60864
2016-05-05T09:51:11.067Z,75712
2016-05-05T09:52:10.914Z,57472
2016-05-05T09:53:10.901Z,28288
2016-05-05T09:54:10.919Z,20224
2016-05-05T09:55:11.063Z,9328
2016-05-05T09:56:10.894Z,9752
2016-05-05T09:57:10.911Z,11420
2016-05-05T09:58:10.899Z,9732
2016-05-05T09:59:11.058Z,10552
2016-05-05T10:00:11.044Z,21216
2016-05-05T10:01:11.063Z,26784
2016-05-05T10:02:11.035Z,57056
2016-05-05T10:03:11.052Z,69504
2016-05-05T10:04:10.712Z,67680
2016-05-05T10:05:10.870Z,68416
2016-05-05T10:06:11.029Z,73504
2016-05-05T10:07:11.016Z,81312
2016-05-05T10:08:11.019Z,89088
2016-05-05T10:09:11.131Z,94144
2016-05-05T10:10:12.353Z,96032
2016-05-05T10:11:10.902Z,92704
2016-05-05T10:12:11.014Z,90080
2016-05-05T10:13:10.877Z,85568
2016-05-05T10:14:11.020Z,76352
2016-05-05T10:15:11.006Z,70016
2016-05-05T10:16:11.026Z,86080
2016-05-05T10:17:11.028Z,76544
2016-05-05T10:18:11.030Z,91520
2016-05-05T10:19:11.284Z,90976
2016-05-05T10:20:10.942Z,88992
2016-05-05T10:21:11.038Z,86496
2016-05-05T10:22:10.870Z,83904
2016-05-05T10:23:11.044Z,83360
2016-05-05T10:24:11.031Z,84128
2016-05-05T10:25:10.893Z,86848
2016-05-05T10:26:10.880Z,88160
2016-05-05T10:27:11.086Z,90272
2016-05-05T10:28:11.652Z,90272
2016-05-05T10:29:11.044Z,89632
2016-05-05T10:30:11.047Z,87008
2016-05-05T10:31:10.893Z,83904
2016-05-05T10:32:11.255Z,82272
2016-05-05T10:33:10.916Z,83360
2016-05-05T10:34:11.058Z,86912
2016-05-05T10:35:10.905Z,91200
2016-05-05T10:36:11.063Z,95776
2016-05-05T10:37:11.066Z,100352
2016-05-05T10:38:11.069Z,101632
2016-05-05T10:39:10.915Z,102784
2016-05-05T10:40:10.965Z,98816
2016-05-05T10:41:10.920Z,96736
2016-05-05T10:42:10.923Z,92384
2016-05-05T10:43:11.082Z,88384
2016-05-05T10:44:11.085Z,87776
2016-05-05T10:45:10.947Z,86240
2016-05-05T10:46:11.090Z,87904
2016-05-05T10:47:11.093Z,92512
2016-05-05T10:48:11.112Z,95040
2016-05-05T10:49:11.114Z,96224
2016-05-05T10:50:11.117Z,98752
2016-05-05T10:51:11.119Z,99712
2016-05-05T10:52:11.122Z,94880
2016-05-05T10:53:11.109Z,92320
2016-05-05T10:54:11.127Z,86368
2016-05-05T10:55:12.333Z,84032
2016-05-05T10:56:10.836Z,82112
2016-05-05T10:57:10.980Z,81056
2016-05-05T10:58:11.138Z,83104
2016-05-05T10:59:11.017Z,85312
2016-05-05T11:00:11.063Z,86016
2016-05-05T11:01:11.280Z,87200
2016-05-05T11:02:11.187Z,87584
2016-05-05T11:03:11.358Z,89824
2016-05-05T11:04:11.399Z,91680
2016-05-05T11:05:11.278Z,93696
2016-05-05T11:06:11.452Z,94624
2016-05-05T11:07:11.299Z,96288
2016-05-05T11:08:11.489Z,96544
2016-05-05T11:09:11.485Z,98240
2016-05-05T11:10:11.493Z,96864
2016-05-05T11:11:11.345Z,96096
2016-05-05T11:12:11.494Z,96352
2016-05-05T11:13:11.361Z,96576
2016-05-05T11:14:11.382Z,94752
2016-05-05T11:15:11.527Z,93664
2016-05-05T11:16:11.547Z,92800
2016-05-05T11:17:11.552Z,91360
2016-05-05T11:18:11.540Z,93600
2016-05-05T11:19:11.561Z,91168
2016-05-05T11:20:11.564Z,86784
2016-05-05T11:21:11.567Z,82912
2016-05-05T11:22:11.618Z,79552
2016-05-05T11:23:11.587Z,77472
2016-05-05T11:24:11.574Z,81472
2016-05-05T11:25:11.890Z,86848
2016-05-05T11:26:11.580Z,91520
2016-05-05T11:27:11.443Z,95968
2016-05-05T11:28:11.602Z,98848
2016-05-05T11:29:11.589Z,97472
2016-05-05T11:30:11.623Z,94336
2016-05-05T11:31:11.422Z,90240
2016-05-05T11:32:11.614Z,86528
2016-05-05T11:33:11.461Z,81696
2016-05-05T11:34:11.728Z,79360
2016-05-05T11:35:11.668Z,75776
2016-05-05T11:36:11.468Z,79360
2016-05-05T11:37:11.642Z,83232
2016-05-05T11:38:11.629Z,88160
2016-05-05T11:39:11.647Z,90624
2016-05-05T11:40:11.511Z,92128
2016-05-05T11:41:11.653Z,91904
2016-05-05T11:42:11.672Z,90080
2016-05-05T11:43:11.658Z,87904
2016-05-05T11:44:11.661Z,84672
2016-05-05T11:45:11.523Z,89248
2016-05-05T11:46:11.683Z,91008
2016-05-05T11:47:11.529Z,93984
2016-05-05T11:48:11.688Z,96064
2016-05-05T11:49:11.674Z,98304
2016-05-05T11:50:11.693Z,96576
2016-05-05T11:51:11.384Z,93184
2016-05-05T11:52:11.698Z,89760
2016-05-05T11:53:11.701Z,84416
2016-05-05T11:54:11.704Z,79840
2016-05-05T11:55:11.848Z,76416
2016-05-05T11:56:11.569Z,74976
2016-05-05T11:57:11.728Z,75616
2016-05-05T11:58:11.574Z,77696
2016-05-05T11:59:11.733Z,82016
2016-05-05T12:00:11.736Z,85920
2016-05-05T12:01:11.753Z,92384
2016-05-05T12:02:11.600Z,96192
2016-05-05T12:03:11.603Z,96288
2016-05-05T12:04:11.762Z,92256
2016-05-05T12:05:11.781Z,85984
2016-05-05T12:06:11.752Z,82720
2016-05-05T12:07:11.786Z,80384
2016-05-05T12:08:11.850Z,79648
2016-05-05T12:09:11.791Z,81664
2016-05-05T12:10:11.794Z,85184
2016-05-05T12:11:11.625Z,91072
2016-05-05T12:12:11.799Z,95136
2016-05-05T12:13:11.802Z,99904
2016-05-05T12:14:11.820Z,102912
2016-05-05T12:15:11.838Z,101504
2016-05-05T12:16:11.809Z,93280
2016-05-05T12:17:11.829Z,88960
2016-05-05T12:18:12.050Z,84224
2016-05-05T12:19:11.818Z,78240
2016-05-05T12:20:11.837Z,74912
2016-05-05T12:21:11.682Z,77664
2016-05-05T12:22:11.842Z,81536
2016-05-05T12:23:11.844Z,85664
2016-05-05T12:24:11.847Z,88224
2016-05-05T12:25:11.866Z,93440
2016-05-05T12:26:11.868Z,95232
2016-05-05T12:27:11.715Z,93280
2016-05-05T12:28:11.889Z,91200
2016-05-05T12:29:11.876Z,90592
2016-05-05T12:30:11.878Z,88672
2016-05-05T12:31:11.726Z,84864
2016-05-05T12:32:12.087Z,81280
2016-05-05T12:33:11.746Z,79776
2016-05-05T12:34:11.905Z,79616
2016-05-05T12:35:11.908Z,77792
2016-05-05T12:36:11.910Z,77600
2016-05-05T12:37:11.928Z,79392
2016-05-05T12:38:11.916Z,81056
2016-05-05T12:39:11.919Z,81632
2016-05-05T12:40:11.952Z,83616
2016-05-05T12:41:11.924Z,84544
2016-05-05T12:42:11.942Z,84256
2016-05-05T12:43:11.788Z,83904
2016-05-05T12:44:11.791Z,87072
2016-05-05T12:45:11.950Z,86592
2016-05-05T12:46:11.953Z,85856
2016-05-05T12:47:11.799Z,84864
2016-05-05T12:48:11.990Z,84064
2016-05-05T12:49:11.836Z,83616
2016-05-05T12:50:11.963Z,85280
2016-05-05T12:51:12.045Z,87392
2016-05-05T12:52:12.015Z,89216
2016-05-05T12:53:11.675Z,88800
2016-05-05T12:54:11.990Z,87872
2016-05-05T12:55:12.149Z,86976
2016-05-05T12:56:11.871Z,84576
2016-05-05T12:57:11.842Z,85504
2016-05-05T12:58:12.203Z,76768
2016-05-05T12:59:11.862Z,89472
2016-05-05T13:00:11.882Z,94464
2016-05-05T13:01:12.025Z,99072
2016-05-05T13:02:12.028Z,102400
2016-05-05T13:03:12.030Z,100704
2016-05-05T13:04:11.876Z,97120
2016-05-05T13:05:12.051Z,92160
2016-05-05T13:06:12.053Z,87648
2016-05-05T13:07:12.056Z,84032
2016-05-05T13:08:12.075Z,81888
2016-05-05T13:09:11.906Z,80768
2016-05-05T13:10:12.096Z,83008
2016-05-05T13:11:11.911Z,85376
2016-05-05T13:12:12.070Z,85536
2016-05-05T13:13:12.088Z,88160
2016-05-05T13:14:12.075Z,87072
2016-05-05T13:15:12.093Z,87616
2016-05-05T13:16:12.315Z,87552
2016-05-05T13:17:12.099Z,86880
2016-05-05T13:18:12.102Z,85536
2016-05-05T13:19:12.104Z,85984
2016-05-05T13:20:12.107Z,86752
2016-05-05T13:21:12.110Z,86240
2016-05-05T13:22:11.972Z,84672
2016-05-05T13:23:12.131Z,83232
2016-05-05T13:24:12.134Z,79072
2016-05-05T13:25:12.387Z,76896
2016-05-05T13:26:12.139Z,74848
2016-05-05T13:27:12.142Z,72160
2016-05-05T13:28:12.004Z,73120
2016-05-05T13:29:12.006Z,75488
2016-05-05T13:30:12.150Z,78912
2016-05-05T13:31:12.168Z,79744